Time;durP1;ratioP1;P1;durP2;ratioP2;P2;SDS_P1;SDS_P2;PMS_P1;PMS_P2;Temp;Humidity;BMP_temperature;BMP_pressure;BME280_temperature;BME280_humidity;BME280_pressure;Samples;Min_cycle;Max_cycle;Signal;HPM_P1;HPM_P2
2022/05/21 00:01:54;;;;;;;7.83;7.17;;;20.50;25.60;;;;;;4977261;28;20899;-72
2022/05/21 00:04:20;;;;;;;7.70;7.20;;;20.50;25.40;;;;;;4976983;28;20447;-72
2022/05/21 00:06:45;;;;;;;7.57;7.10;;;20.50;25.60;;;;;;4976313;28;20804;-73
2022/05/21 00:09:11;;;;;;;8.13;7.53;;;20.60;25.30;;;;;;4976873;28;20227;-71
2022/05/21 00:11:38;;;;;;;7.00;6.60;;;20.50;25.20;;;;;;4977347;28;20713;-72
2022/05/21 00:14:04;;;;;;;7.30;6.73;;;20.30;25.50;;;;;;4977002;28;20547;-73
2022/05/21 00:16:30;;;;;;;7.50;6.90;;;20.30;25.50;;;;;;4976844;28;20427;-72
2022/05/21 00:18:57;;;;;;;7.17;6.60;;;20.20;25.40;;;;;;4976687;28;20488;-71
2022/05/21 00:21:23;;;;;;;6.63;6.23;;;20.10;25.60;;;;;;4976854;28;20423;-72
2022/05/21 00:23:50;;;;;;;7.17;6.67;;;20.10;25.70;;;;;;4976054;28;20954;-72
2022/05/21 00:26:16;;;;;;;8.10;7.47;;;20.00;25.90;;;;;;4976126;28;20431;-71
2022/05/21 00:28:43;;;;;;;7.23;6.67;;;20.00;25.50;;;;;;4977083;28;20906;-71
2022/05/21 00:31:11;;;;;;;6.90;6.40;;;20.00;25.60;;;;;;4977233;28;20213;-71
2022/05/21 00:33:37;;;;;;;7.43;7.03;;;20.10;25.30;;;;;;4976430;28;20424;-71
2022/05/21 00:36:05;;;;;;;7.67;7.20;;;20.00;25.20;;;;;;4976600;28;20412;-71
2022/05/21 00:38:31;;;;;;;7.20;6.60;;;19.90;25.10;;;;;;4976596;28;20873;-72
2022/05/21 00:40:56;;;;;;;6.80;6.40;;;19.80;25.30;;;;;;4977462;28;20551;-71
2022/05/21 00:43:59;;;;;;;7.53;7.03;;;19.80;25.60;;;;;;4977075;28;20793;-71
2022/05/21 00:46:38;;;;;;;6.87;6.47;;;19.70;25.80;;;;;;4976865;28;20188;-71
2022/05/21 00:49:11;;;;;;;6.27;5.67;;;19.40;26.40;;;;;;4976822;28;20452;-71
2022/05/21 00:51:48;;;;;;;6.33;5.63;;;19.40;26.50;;;;;;4977063;28;20765;-71
2022/05/21 00:54:15;;;;;;;6.83;6.23;;;19.30;26.90;;;;;;4976132;28;20468;-71
2022/05/21 00:56:54;;;;;;;6.33;5.90;;;19.30;26.50;;;;;;4975547;28;21014;-71
2022/05/21 01:02:07;;;;;;;5.47;5.17;;;19.10;26.50;;;;;;4976074;28;20420;-71
2022/05/21 01:04:33;;;;;;;6.10;5.70;;;19.10;26.90;;;;;;4974711;28;20435;-71
2022/05/21 01:07:00;;;;;;;5.67;5.27;;;19.10;26.40;;;;;;4976068;28;20420;-71
2022/05/21 01:09:26;;;;;;;5.80;5.50;;;19.10;26.40;;;;;;4975314;28;20420;-70
2022/05/21 01:11:53;;;;;;;6.37;5.80;;;18.80;27.00;;;;;;4975680;28;20425;-71
2022/05/21 01:14:22;;;;;;;6.30;5.70;;;18.80;27.50;;;;;;4975433;28;20212;-70
2022/05/21 01:16:49;;;;;;;6.33;5.83;;;18.80;27.40;;;;;;4977198;28;20449;-72
2022/05/21 01:19:14;;;;;;;5.63;5.13;;;18.70;27.50;;;;;;4976988;28;20472;-71
2022/05/21 01:21:41;;;;;;;6.17;5.53;;;18.60;27.90;;;;;;4975792;28;20953;-71
2022/05/21 01:24:08;;;;;;;6.40;6.00;;;18.70;27.80;;;;;;4975485;28;20589;-71
2022/05/21 01:26:35;;;;;;;5.83;5.43;;;18.70;27.50;;;;;;4975708;28;20417;-71
2022/05/21 01:29:11;;;;;;;5.70;5.30;;;18.70;27.20;;;;;;4975400;28;20423;-70
2022/05/21 01:31:37;;;;;;;5.60;5.20;;;18.70;27.30;;;;;;4975577;28;20500;-71
2022/05/21 01:34:04;;;;;;;6.00;5.60;;;18.70;27.50;;;;;;4975623;28;20993;-71
2022/05/21 01:36:30;;;;;;;5.50;5.10;;;18.70;27.20;;;;;;4975256;28;20412;-71
2022/05/21 01:38:56;;;;;;;5.30;4.90;;;18.60;27.20;;;;;;4973769;28;20464;-70
2022/05/21 01:41:22;;;;;;;5.40;4.60;;;18.50;27.20;;;;;;4975064;28;20507;-70
2022/05/21 01:46:32;;;;;;;5.67;5.20;;;18.40;27.20;;;;;;4975076;28;20219;-70
2022/05/21 01:48:57;;;;;;;6.13;5.50;;;18.40;27.10;;;;;;4973624;28;20836;-70
2022/05/21 01:51:23;;;;;;;5.60;5.20;;;18.30;27.40;;;;;;4974887;28;20197;-70
2022/05/21 01:53:48;;;;;;;6.47;5.97;;;18.40;26.90;;;;;;4975179;28;20228;-70
2022/05/21 01:56:14;;;;;;;5.17;4.87;;;18.40;26.60;;;;;;4975278;28;20203;-70
2022/05/21 01:58:41;;;;;;;6.07;5.67;;;18.40;26.40;;;;;;4975270;28;20208;-71
2022/05/21 02:01:08;;;;;;;5.60;5.20;;;18.40;25.90;;;;;;4975796;28;20467;-71
2022/05/21 02:03:34;;;;;;;6.13;5.73;;;18.40;25.90;;;;;;4976132;28;20412;-71
2022/05/21 02:05:59;;;;;;;6.57;6.17;;;18.40;25.10;;;;;;4975620;28;20508;-71
2022/05/21 02:08:25;;;;;;;6.10;5.80;;;18.40;25.00;;;;;;4975397;28;20412;-71
2022/05/21 02:10:52;;;;;;;5.83;5.27;;;18.30;25.10;;;;;;4976004;28;20187;-71
2022/05/21 02:13:20;;;;;;;6.83;6.00;;;18.30;25.40;;;;;;4976186;28;20242;-71
2022/05/21 02:15:46;;;;;;;6.53;6.10;;;18.20;25.80;;;;;;4975309;28;20452;-71
2022/05/21 02:18:12;;;;;;;6.13;5.67;;;18.20;25.90;;;;;;4975667;28;20417;-71
2022/05/21 02:20:39;;;;;;;5.20;4.90;;;18.20;25.50;;;;;;4975836;28;20495;-70
2022/05/21 02:23:05;;;;;;;5.20;4.90;;;18.20;25.80;;;;;;4975921;28;20425;-71
2022/05/21 02:25:31;;;;;;;5.93;5.63;;;18.10;26.10;;;;;;4975548;28;20467;-72
2022/05/21 02:27:56;;;;;;;6.00;5.50;;;18.00;26.40;;;;;;4975163;28;20860;-71
2022/05/21 02:30:22;;;;;;;5.77;5.23;;;17.90;26.60;;;;;;4976030;28;20182;-71
2022/05/21 02:32:48;;;;;;;6.30;5.90;;;17.70;27.00;;;;;;4975232;28;20635;-71
2022/05/21 02:35:14;;;;;;;5.70;5.27;;;17.70;26.80;;;;;;4975697;28;20481;-71
2022/05/21 02:40:25;;;;;;;4.83;4.53;;;17.70;27.30;;;;;;4975727;28;20495;-71
2022/05/21 02:42:50;;;;;;;3.97;3.67;;;17.30;27.60;;;;;;4975213;28;20420;-71
2022/05/21 02:45:19;;;;;;;8.33;4.40;;;16.90;28.70;;;;;;4976160;28;20268;-71
2022/05/21 02:47:45;;;;;;;3.83;3.50;;;16.90;28.80;;;;;;4974019;28;20180;-71
2022/05/21 02:50:13;;;;;;;5.47;4.80;;;17.00;28.40;;;;;;4975323;28;20417;-71
2022/05/21 02:52:39;;;;;;;4.93;4.50;;;17.10;27.90;;;;;;4974981;28;20416;-71
2022/05/21 02:55:06;;;;;;;5.63;5.23;;;17.10;27.80;;;;;;4975126;28;20515;-72
2022/05/21 02:57:32;;;;;;;6.33;5.73;;;17.20;27.00;;;;;;4973685;28;20450;-71
2022/05/21 03:00:01;;;;;;;4.67;4.37;;;17.10;26.60;;;;;;4975010;28;20463;-72
2022/05/21 03:02:27;;;;;;;5.80;5.40;;;17.20;26.60;;;;;;4974511;28;20177;-70
2022/05/21 03:04:53;;;;;;;6.00;5.60;;;17.20;25.40;;;;;;4974310;28;20432;-71
2022/05/21 03:07:19;;;;;;;5.80;5.50;;;17.20;24.00;;;;;;4974021;28;20776;-71
2022/05/21 03:12:29;;;;;;;6.60;6.20;;;17.10;24.10;;;;;;4974416;28;20618;-71
2022/05/21 03:14:54;;;;;;;6.53;6.13;;;17.00;24.00;;;;;;4974406;28;20439;-71
2022/05/21 03:17:20;;;;;;;6.73;6.33;;;16.90;24.40;;;;;;4973732;28;20693;-71
2022/05/21 03:19:45;;;;;;;6.50;6.10;;;16.70;24.40;;;;;;4973745;28;20219;-70
2022/05/21 03:22:11;;;;;;;6.17;5.87;;;16.70;24.40;;;;;;4974251;28;20179;-70
2022/05/21 03:24:36;;;;;;;6.00;5.57;;;16.50;24.40;;;;;;4977028;28;20219;-70
2022/05/21 03:27:02;;;;;;;6.70;6.30;;;16.40;25.00;;;;;;4974963;28;20180;-71
2022/05/21 03:29:27;;;;;;;6.80;6.20;;;16.40;24.60;;;;;;4978496;28;20195;-71
2022/05/21 03:31:54;;;;;;;5.90;5.60;;;16.50;25.00;;;;;;4980502;28;20185;-71
2022/05/21 03:34:19;;;;;;;5.90;5.60;;;16.50;24.40;;;;;;4982656;28;20534;-71
2022/05/21 03:36:45;;;;;;;6.63;6.27;;;16.50;24.40;;;;;;4982868;28;20727;-71
2022/05/21 03:39:11;;;;;;;7.00;6.53;;;16.60;23.90;;;;;;4982483;28;20216;-71
2022/05/21 03:41:36;;;;;;;7.07;6.50;;;16.60;23.80;;;;;;4980731;28;20177;-70
2022/05/21 03:44:03;;;;;;;7.10;6.60;;;16.50;23.50;;;;;;4978912;28;20689;-71
2022/05/21 03:46:28;;;;;;;6.43;6.13;;;16.50;23.50;;;;;;4981184;28;20180;-70
2022/05/21 03:48:54;;;;;;;7.40;6.70;;;16.50;23.80;;;;;;4979496;28;20557;-71
2022/05/21 03:51:19;;;;;;;6.90;6.40;;;16.50;23.60;;;;;;4980084;28;20682;-71
2022/05/21 03:53:45;;;;;;;6.30;5.90;;;16.60;22.90;;;;;;4979186;28;20188;-71
2022/05/21 03:56:11;;;;;;;7.10;6.80;;;16.70;23.60;;;;;;4979184;28;20239;-71
2022/05/21 03:58:36;;;;;;;7.30;6.90;;;16.80;23.00;;;;;;4979384;28;20205;-71
2022/05/21 04:01:02;;;;;;;7.10;6.70;;;16.70;23.00;;;;;;4980044;28;20180;-72
2022/05/21 04:03:28;;;;;;;6.80;6.47;;;16.60;22.90;;;;;;4979088;28;20219;-72
2022/05/21 04:05:55;;;;;;;6.13;5.83;;;16.60;23.40;;;;;;4978829;28;20362;-71
2022/05/21 04:08:21;;;;;;;6.57;6.27;;;16.50;22.80;;;;;;4980471;28;20204;-71
2022/05/21 04:10:47;;;;;;;6.70;6.30;;;16.40;23.40;;;;;;4979429;28;20418;-72
2022/05/21 04:13:15;;;;;;;6.20;5.90;;;16.30;23.10;;;;;;4978000;28;20954;-71
2022/05/21 04:15:40;;;;;;;6.67;6.20;;;16.20;24.00;;;;;;4978044;28;20430;-71
2022/05/21 04:18:06;;;;;;;5.90;5.60;;;16.20;23.80;;;;;;4977382;28;20428;-71
2022/05/21 04:20:32;;;;;;;7.27;6.87;;;16.00;24.20;;;;;;4977021;28;20470;-71
2022/05/21 04:22:57;;;;;;;7.10;6.60;;;16.10;24.10;;;;;;4977466;28;20522;-71
2022/05/21 04:25:23;;;;;;;8.40;7.83;;;16.20;23.70;;;;;;4977687;28;20215;-71
2022/05/21 04:27:48;;;;;;;8.30;7.70;;;16.10;24.10;;;;;;4977563;28;20183;-71
2022/05/21 04:30:18;;;;;;;8.60;7.90;;;16.00;23.40;;;;;;4977668;28;20192;-71
2022/05/21 04:32:44;;;;;;;7.60;7.03;;;16.10;23.90;;;;;;4977038;28;20368;-71
2022/05/21 04:35:11;;;;;;;7.07;6.67;;;16.00;24.10;;;;;;4976786;28;20454;-71
2022/05/21 04:37:37;;;;;;;6.40;5.90;;;16.10;23.90;;;;;;4977152;28;20419;-71
2022/05/21 04:40:06;;;;;;;6.90;6.40;;;16.10;23.70;;;;;;4975976;28;20475;-71
2022/05/21 04:42:31;;;;;;;6.80;6.30;;;16.10;23.60;;;;;;4976713;28;20511;-71
2022/05/21 04:44:57;;;;;;;6.87;6.47;;;16.20;23.30;;;;;;4979995;28;20850;-70
2022/05/21 04:47:22;;;;;;;5.93;5.63;;;16.20;23.60;;;;;;4976591;28;20206;-70
2022/05/21 04:49:48;;;;;;;7.20;6.80;;;16.30;22.70;;;;;;4977522;28;20176;-70
2022/05/21 04:52:14;;;;;;;6.93;6.53;;;16.30;22.70;;;;;;4977257;28;20184;-69
2022/05/21 04:54:39;;;;;;;8.00;7.40;;;16.30;22.70;;;;;;4977827;28;20197;-70
2022/05/21 04:57:06;;;;;;;8.23;7.73;;;16.50;22.80;;;;;;4976371;28;20530;-70
2022/05/21 04:59:32;;;;;;;9.00;8.60;;;17.30;21.70;;;;;;4974715;28;20569;-70
2022/05/21 05:01:58;;;;;;;11.07;10.57;;;18.60;20.00;;;;;;4975347;28;20922;-70
2022/05/21 05:04:24;;;;;;;13.33;12.60;;;20.10;17.80;;;;;;4974954;28;20523;-70
2022/05/21 05:06:49;;;;;;;13.73;13.20;;;21.50;14.20;;;;;;4974652;28;20538;-71
2022/05/21 05:09:19;;;;;;;14.53;13.93;;;22.50;16.70;;;;;;4974188;28;20193;-71
2022/05/21 05:11:45;;;;;;;15.00;14.40;;;23.70;10.10;;;;;;4975103;28;20174;-71
2022/05/21 05:14:10;;;;;;;15.83;15.13;;;25.00;8.80;;;;;;4975025;28;20447;-70
2022/05/21 05:16:36;;;;;;;16.80;16.00;;;26.10;7.80;;;;;;4974792;28;20266;-69
2022/05/21 05:19:01;;;;;;;16.80;16.03;;;26.80;5.10;;;;;;4972618;28;20219;-70
2022/05/21 05:21:27;;;;;;;15.90;15.30;;;27.30;4.40;;;;;;4974713;28;20177;-72
2022/05/21 05:23:55;;;;;;;15.97;15.27;;;27.80;4.90;;;;;;4974967;28;20166;-72
2022/05/21 05:26:22;;;;;;;16.40;15.60;;;28.60;3.60;;;;;;4955473;28;20325;-71
2022/05/21 05:28:48;;;;;;;16.70;16.10;;;29.30;2.30;;;;;;4955182;29;20425;-71
2022/05/21 05:31:15;;;;;;;17.07;16.37;;;30.00;1.20;;;;;;4955288;28;20422;-71
2022/05/21 05:33:40;;;;;;;17.07;16.37;;;30.50;1.00;;;;;;4955338;29;20418;-71
2022/05/21 05:36:06;;;;;;;18.87;18.07;;;29.40;1.00;;;;;;4955250;28;20978;-71
2022/05/21 05:38:32;;;;;;;16.37;15.77;;;29.60;1.00;;;;;;4974213;28;20173;-71
2022/05/21 05:40:57;;;;;;;16.63;15.93;;;29.90;1.00;;;;;;4974313;28;20417;-70
2022/05/21 05:43:23;;;;;;;16.47;15.87;;;30.20;1.20;;;;;;4974319;28;20260;-72
2022/05/21 05:45:51;;;;;;;16.97;16.37;;;31.00;1.00;;;;;;4974038;28;20197;-71
2022/05/21 05:48:19;;;;;;;17.30;16.60;;;30.70;1.00;;;;;;4973949;28;20181;-71
2022/05/21 05:50:45;;;;;;;16.90;16.30;;;31.10;1.00;;;;;;4973551;28;20405;-71
2022/05/21 05:53:10;;;;;;;17.70;16.90;;;32.00;1.00;;;;;;4972972;28;20416;-71
2022/05/21 05:55:36;;;;;;;16.20;15.60;;;32.30;1.00;;;;;;4974029;28;20729;-71
2022/05/21 05:59:48;;;;;;;17.00;16.30;;;32.20;1.00;;;;;;4973882;28;20181;-71
2022/05/21 06:00:48;;;;;;;17.43;16.73;;;32.40;1.00;;;;;;4973929;28;20549;-72
2022/05/21 06:03:14;;;;;;;16.30;15.70;;;32.20;1.00;;;;;;4973901;28;20408;-72
2022/05/21 06:05:39;;;;;;;16.03;15.43;;;32.50;1.00;;;;;;4973741;28;20201;-72
2022/05/21 06:08:06;;;;;;;16.40;15.80;;;32.70;1.00;;;;;;4973548;28;20268;-72
2022/05/21 06:10:37;;;;;;;16.17;15.47;;;32.90;1.00;;;;;;4973877;28;20180;-70
2022/05/21 06:13:04;;;;;;;17.20;16.30;;;32.60;1.00;;;;;;4973871;28;20404;-70
2022/05/21 06:15:29;;;;;;;15.80;15.10;;;32.90;1.00;;;;;;4969541;28;20464;-72
2022/05/21 06:17:55;;;;;;;15.60;15.00;;;33.50;1.00;;;;;;4968636;28;20452;-68
2022/05/21 06:20:26;;;;;;;16.10;15.30;;;34.10;1.00;;;;;;4969873;28;20284;-72
2022/05/21 06:22:53;;;;;;;15.50;14.90;;;34.10;1.00;;;;;;4968315;28;20193;-72
2022/05/21 06:25:21;;;;;;;15.80;15.20;;;34.20;1.00;;;;;;4969130;28;20464;-71
2022/05/21 06:27:49;;;;;;;15.90;15.30;;;34.20;1.00;;;;;;4969552;28;20429;-72
2022/05/21 06:30:16;;;;;;;15.60;15.00;;;34.40;1.00;;;;;;4969575;28;20433;-72
2022/05/21 06:32:42;;;;;;;15.90;15.30;;;33.90;1.00;;;;;;4968011;28;20528;-71
2022/05/21 06:35:08;;;;;;;15.80;15.20;;;33.50;1.00;;;;;;4969812;28;20520;-71
2022/05/21 06:37:34;;;;;;;15.77;15.17;;;33.00;1.00;;;;;;4969390;28;20196;-71
2022/05/21 06:39:59;;;;;;;15.50;14.90;;;32.60;1.00;;;;;;4969486;28;20469;-71
2022/05/21 06:42:25;;;;;;;15.77;15.07;;;32.20;1.00;;;;;;4970375;28;20193;-72
2022/05/21 06:44:51;;;;;;;15.30;14.70;;;31.80;1.00;;;;;;4973496;28;20205;-76
2022/05/21 06:47:17;;;;;;;15.40;14.80;;;30.90;1.00;;;;;;4972737;28;20192;-72
2022/05/21 06:49:42;;;;;;;15.63;14.80;;;29.90;1.00;;;;;;4972884;28;20443;-71
2022/05/21 06:52:09;;;;;;;15.90;15.27;;;29.10;1.00;;;;;;4973379;28;20181;-71
2022/05/21 06:54:34;;;;;;;14.80;14.20;;;28.50;1.00;;;;;;4973381;28;20312;-70
2022/05/21 06:57:00;;;;;;;16.10;15.27;;;27.60;1.00;;;;;;4973750;28;20503;-71
2022/05/21 06:59:26;;;;;;;15.30;14.53;;;27.10;1.00;;;;;;4971157;28;20239;-70
2022/05/21 07:01:51;;;;;;;15.20;14.60;;;26.90;1.00;;;;;;4974091;28;20263;-71
2022/05/21 07:07:32;;;;;;;15.10;14.47;;;27.60;1.00;;;;;;4975860;28;20197;-71
2022/05/21 07:09:48;;;;;;;16.07;15.27;;;29.30;1.00;;;;;;4976413;28;20439;-71
2022/05/21 07:12:13;;;;;;;15.10;14.50;;;30.10;1.00;;;;;;4976533;28;20425;-70
2022/05/21 07:14:39;;;;;;;15.53;14.83;;;30.90;1.00;;;;;;4976822;28;20216;-71
2022/05/21 07:17:05;;;;;;;14.97;14.37;;;31.00;1.00;;;;;;4977047;28;20181;-72
2022/05/21 07:19:30;;;;;;;14.83;14.30;;;31.30;1.00;;;;;;4976739;28;20224;-71
2022/05/21 07:21:56;;;;;;;14.93;14.20;;;31.50;1.00;;;;;;4977310;28;20192;-72
2022/05/21 07:24:23;;;;;;;14.80;14.10;;;31.80;1.00;;;;;;4977596;28;20217;-70
2022/05/21 07:26:49;;;;;;;14.80;14.30;;;31.90;1.00;;;;;;4976570;28;20181;-70
2022/05/21 07:29:14;;;;;;;15.10;14.50;;;32.20;1.00;;;;;;4976429;28;20495;-71
2022/05/21 07:31:40;;;;;;;15.00;14.50;;;32.60;1.00;;;;;;4977025;28;20595;-73
2022/05/21 07:34:09;;;;;;;15.10;14.43;;;32.60;1.00;;;;;;4977682;28;20208;-73
2022/05/21 07:36:34;;;;;;;16.30;15.70;;;32.20;1.00;;;;;;4977812;28;20180;-73
2022/05/21 07:39:00;;;;;;;15.57;14.97;;;32.80;1.00;;;;;;4976349;28;20465;-72
2022/05/21 07:41:25;;;;;;;15.33;14.73;;;32.80;1.00;;;;;;4975604;28;20181;-74
2022/05/21 07:43:51;;;;;;;15.73;15.17;;;32.90;1.00;;;;;;4976599;28;20181;-72
2022/05/21 07:46:16;;;;;;;15.10;14.60;;;32.70;1.00;;;;;;4975501;28;20173;-74
2022/05/21 07:48:42;;;;;;;15.20;14.70;;;33.00;1.00;;;;;;4976240;28;20177;-73
2022/05/21 07:51:08;;;;;;;16.20;15.10;;;33.10;1.00;;;;;;4975688;28;20184;-72
2022/05/21 07:53:36;;;;;;;15.37;14.80;;;32.80;1.00;;;;;;4979211;28;20189;-73
2022/05/21 07:56:03;;;;;;;15.83;15.23;;;32.70;1.00;;;;;;4976514;28;20174;-72
2022/05/21 07:58:31;;;;;;;15.57;15.00;;;32.80;1.00;;;;;;4976461;28;20436;-72
2022/05/21 08:00:58;;;;;;;15.53;14.83;;;32.90;1.00;;;;;;4976440;28;20467;-72
2022/05/21 08:03:24;;;;;;;15.80;15.20;;;32.50;1.00;;;;;;4976106;28;20772;-72
2022/05/21 08:05:50;;;;;;;15.43;14.80;;;32.50;1.00;;;;;;4976325;28;20482;-70
2022/05/21 08:08:16;;;;;;;15.73;15.10;;;32.30;1.00;;;;;;4976171;28;20480;-71
2022/05/21 08:10:44;;;;;;;15.53;14.97;;;32.10;1.00;;;;;;4976455;28;20635;-75
2022/05/21 08:13:10;;;;;;;16.20;15.00;;;31.10;1.00;;;;;;4976383;28;20639;-73
2022/05/21 08:15:36;;;;;;;15.77;15.17;;;29.40;1.00;;;;;;4976792;28;20451;-72
2022/05/21 08:18:04;;;;;;;16.20;15.50;;;28.90;1.00;;;;;;4975570;28;20804;-73
2022/05/21 08:20:31;;;;;;;15.33;14.73;;;28.90;1.00;;;;;;4972647;28;20208;-73
2022/05/21 08:28:25;;;;;;;15.23;14.43;;;28.30;1.00;;;;;;4975874;28;20917;-74
2022/05/21 08:30:53;;;;;;;14.90;14.30;;;28.30;1.00;;;;;;4975764;28;20432;-75
2022/05/21 08:33:22;;;;;;;16.00;15.30;;;27.50;1.00;;;;;;4975853;28;20308;-72
2022/05/21 08:35:48;;;;;;;15.10;14.50;;;27.70;1.00;;;;;;4975758;28;20806;-73
2022/05/21 08:38:16;;;;;;;15.30;14.80;;;27.30;1.00;;;;;;4974477;28;20455;-72
2022/05/21 08:40:44;;;;;;;15.10;14.60;;;27.50;1.00;;;;;;4975587;28;20464;-74
2022/05/21 08:43:23;;;;;;;15.80;15.20;;;27.60;1.00;;;;;;4976043;28;20413;-72
2022/05/21 08:46:07;;;;;;;15.70;15.10;;;27.10;1.00;;;;;;4975478;28;20452;-74
2022/05/21 08:48:34;;;;;;;15.40;14.90;;;26.80;1.00;;;;;;4975487;28;20409;-72
2022/05/21 08:51:05;;;;;;;15.50;14.80;;;26.60;1.00;;;;;;4974939;28;20466;-72
2022/05/21 08:53:32;;;;;;;15.33;14.70;;;26.30;1.00;;;;;;4975013;28;20417;-73
2022/05/21 08:56:01;;;;;;;16.03;15.43;;;26.00;1.00;;;;;;4975637;28;20425;-73
2022/05/21 08:58:47;;;;;;;14.90;14.30;;;25.70;1.00;;;;;;4977637;28;20413;-74
2022/05/21 09:01:17;;;;;;;15.70;15.10;;;25.40;1.00;;;;;;4975688;28;20507;-73
2022/05/21 09:03:44;;;;;;;16.03;15.10;;;25.10;1.00;;;;;;4973477;28;20429;-72
2022/05/21 09:06:18;;;;;;;15.33;14.80;;;24.70;1.00;;;;;;4970959;28;20437;-74
2022/05/21 09:09:03;;;;;;;14.50;13.80;;;24.30;1.00;;;;;;4974834;28;20417;-74
2022/05/21 09:11:41;;;;;;;14.87;14.37;;;23.60;1.00;;;;;;4975225;28;20432;-73
2022/05/21 09:14:26;;;;;;;14.10;13.60;;;23.20;1.00;;;;;;4974774;28;20451;-71
2022/05/21 09:16:56;;;;;;;14.90;14.40;;;23.00;1.00;;;;;;4975302;28;20843;-73
2022/05/21 09:19:38;;;;;;;14.57;14.07;;;22.90;1.00;;;;;;4973542;28;20473;-73
2022/05/21 09:22:10;;;;;;;14.70;14.20;;;22.70;1.30;;;;;;4974965;28;20413;-74
2022/05/21 09:24:45;;;;;;;15.10;14.50;;;22.70;2.10;;;;;;4973992;28;20460;-73
2022/05/21 09:27:22;;;;;;;14.40;13.90;;;22.80;1.40;;;;;;4973913;28;20745;-73
2022/05/21 09:29:50;;;;;;;14.33;13.83;;;22.90;1.10;;;;;;4973667;28;20463;-73
2022/05/21 09:32:20;;;;;;;14.70;14.17;;;22.90;1.30;;;;;;4975325;28;20421;-73
2022/05/21 09:35:09;;;;;;;15.57;14.67;;;22.90;1.10;;;;;;4975367;28;20460;-72
2022/05/21 09:37:35;;;;;;;14.50;14.00;;;22.90;1.70;;;;;;4974856;28;20973;-73
2022/05/21 09:40:00;;;;;;;15.00;14.00;;;22.90;1.00;;;;;;4975573;28;20472;-71
2022/05/21 09:45:27;;;;;;;14.10;13.60;;;22.70;1.00;;;;;;4975888;28;20276;-72
2022/05/21 09:48:03;;;;;;;14.43;13.93;;;22.70;1.00;;;;;;4975030;28;20420;-73
2022/05/21 09:50:28;;;;;;;14.20;13.70;;;22.60;1.00;;;;;;4975186;28;20412;-68
2022/05/21 09:52:54;;;;;;;14.60;14.10;;;22.60;1.90;;;;;;4975400;28;20428;-70
2022/05/21 09:55:22;;;;;;;14.70;14.20;;;22.40;1.00;;;;;;4975476;28;20689;-70
2022/05/21 09:57:49;;;;;;;14.90;14.30;;;21.80;1.00;;;;;;4974579;28;20173;-69
2022/05/21 10:00:33;;;;;;;16.27;15.50;;;21.30;1.70;;;;;;4973596;28;20559;-68
2022/05/21 10:03:02;;;;;;;14.63;14.13;;;21.30;2.80;;;;;;4974815;28;20901;-70
2022/05/21 10:05:43;;;;;;;14.90;14.30;;;20.90;1.90;;;;;;4977450;28;20436;-70
2022/05/21 10:11:25;;;;;;;14.67;14.17;;;21.40;3.10;;;;;;4977650;28;20561;-71
2022/05/21 10:13:59;;;;;;;14.70;14.10;;;21.60;2.60;;;;;;4978425;28;20423;-72
2022/05/21 10:16:39;;;;;;;14.37;13.77;;;21.30;2.10;;;;;;4975147;28;20507;-72
2022/05/21 10:19:31;;;;;;;14.33;13.83;;;21.30;2.50;;;;;;4974841;28;20799;-71
2022/05/21 10:22:23;;;;;;;13.87;13.37;;;21.40;4.30;;;;;;4974260;28;20429;-72
2022/05/21 10:25:03;;;;;;;13.77;13.27;;;21.70;4.10;;;;;;4974538;28;20449;-73
2022/05/21 10:28:03;;;;;;;14.33;13.83;;;21.60;1.60;;;;;;4973322;28;20748;-73
2022/05/21 10:30:33;;;;;;;14.07;13.57;;;21.80;3.00;;;;;;4975418;28;20432;-73
2022/05/21 10:33:13;;;;;;;14.50;14.00;;;22.10;2.80;;;;;;4976423;28;20436;-72
2022/05/21 10:36:03;;;;;;;14.60;14.00;;;22.30;2.70;;;;;;4973716;28;20432;-71
2022/05/21 10:39:07;;;;;;;15.27;14.77;;;22.40;1.70;;;;;;4974850;28;20417;-73
2022/05/21 10:41:42;;;;;;;14.80;14.30;;;22.40;1.80;;;;;;4974119;28;20468;-73
2022/05/21 10:44:32;;;;;;;15.17;14.67;;;22.50;1.30;;;;;;4974624;28;20458;-72
2022/05/21 10:47:07;;;;;;;15.00;14.50;;;22.60;1.00;;;;;;4974501;28;20413;-72
2022/05/21 10:50:19;;;;;;;14.47;13.97;;;22.70;1.30;;;;;;4973983;28;20895;-73
2022/05/21 10:53:16;;;;;;;15.10;14.50;;;22.70;1.20;;;;;;4920047;29;20424;-73
2022/05/21 10:56:04;;;;;;;15.00;14.30;;;22.00;1.30;;;;;;4953956;28;20453;-73
2022/05/21 10:59:00;;;;;;;14.03;13.53;;;21.50;2.40;;;;;;4955565;28;20473;-71
2022/05/21 11:01:34;;;;;;;14.90;14.40;;;22.00;3.10;;;;;;4973468;28;20845;-70
2022/05/21 11:04:15;;;;;;;14.90;14.20;;;22.40;2.60;;;;;;4976326;28;20451;-70
2022/05/21 11:06:58;;;;;;;13.93;13.43;;;22.70;2.90;;;;;;4981397;28;20420;-67
2022/05/21 11:09:51;;;;;;;14.43;13.60;;;22.90;2.60;;;;;;4986506;28;20423;-67
2022/05/21 11:12:41;;;;;;;13.57;13.07;;;23.20;2.30;;;;;;4985915;28;20416;-68
2022/05/21 11:15:22;;;;;;;14.50;14.00;;;23.30;1.50;;;;;;4982335;28;20439;-68
2022/05/21 11:17:54;;;;;;;14.37;13.87;;;23.50;1.70;;;;;;4980305;28;20424;-69
2022/05/21 11:20:26;;;;;;;14.47;13.87;;;23.60;1.80;;;;;;4980058;28;20464;-69
2022/05/21 11:23:14;;;;;;;14.50;14.00;;;23.70;1.00;;;;;;4980242;28;20413;-68
2022/05/21 11:25:55;;;;;;;15.00;14.40;;;23.70;1.00;;;;;;5009354;23;20502;-68
2022/05/21 11:28:34;;;;;;;14.50;14.00;;;23.90;1.00;;;;;;4974489;28;20439;-69
2022/05/21 11:31:08;;;;;;;14.57;14.07;;;24.00;1.00;;;;;;4992451;28;20458;-69
2022/05/21 11:39:13;;;;;;;15.30;14.60;;;24.10;1.10;;;;;;4973064;28;20468;-68
2022/05/21 11:42:00;;;;;;;14.77;14.27;;;24.10;1.10;;;;;;4955536;28;20961;-69
2022/05/21 11:45:04;;;;;;;14.27;13.77;;;24.20;1.00;;;;;;4972663;28;20539;-69
2022/05/21 11:47:40;;;;;;;14.37;13.87;;;24.20;1.20;;;;;;4972567;28;20754;-69
2022/05/21 11:50:17;;;;;;;14.10;13.57;;;24.40;1.20;;;;;;4959275;28;20431;-69
2022/05/21 11:52:55;;;;;;;14.60;14.00;;;24.40;3.00;;;;;;4976543;28;20404;-69
2022/05/21 11:55:22;;;;;;;14.63;14.13;;;24.60;1.00;;;;;;4975985;28;20448;-69
2022/05/21 11:58:02;;;;;;;14.70;14.20;;;24.60;1.00;;;;;;4976204;28;20475;-69
2022/05/21 12:00:27;;;;;;;14.60;14.10;;;24.60;1.00;;;;;;4955197;29;20964;-68
2022/05/21 12:02:59;;;;;;;14.23;13.63;;;24.60;1.00;;;;;;4956894;28;20504;-68
2022/05/21 12:05:49;;;;;;;14.90;14.40;;;24.50;1.00;;;;;;4957664;28;20206;-69
2022/05/21 12:08:36;;;;;;;14.33;13.73;;;24.60;1.00;;;;;;4976004;28;20902;-69
2022/05/21 12:11:04;;;;;;;15.10;14.50;;;24.80;1.00;;;;;;4976106;28;20416;-68
2022/05/21 12:13:33;;;;;;;14.50;14.00;;;24.90;1.00;;;;;;4975776;28;20453;-69
2022/05/21 12:16:22;;;;;;;14.63;14.13;;;25.00;1.00;;;;;;4976043;28;20467;-69
2022/05/21 12:18:55;;;;;;;14.40;13.90;;;25.00;1.00;;;;;;4975157;28;20432;-69
2022/05/21 12:21:32;;;;;;;13.93;13.43;;;25.20;1.00;;;;;;4975642;28;20523;-68
2022/05/21 12:24:18;;;;;;;13.57;13.07;;;25.30;1.00;;;;;;4976404;28;20436;-68
2022/05/21 12:26:45;;;;;;;14.07;13.57;;;25.30;1.00;;;;;;4958708;28;20459;-70
2022/05/21 12:29:13;;;;;;;13.70;13.20;;;25.40;1.00;;;;;;4976025;28;20799;-69
2022/05/21 12:32:00;;;;;;;14.17;13.67;;;25.40;1.00;;;;;;4955258;29;20525;-69
2022/05/21 12:34:54;;;;;;;13.80;13.30;;;25.50;1.00;;;;;;4956438;29;20480;-70
2022/05/21 12:37:31;;;;;;;14.33;13.83;;;25.40;1.30;;;;;;4956338;29;20476;-70
2022/05/21 12:40:10;;;;;;;14.40;13.90;;;25.50;1.00;;;;;;4940472;28;20461;-68
2022/05/21 12:42:51;;;;;;;14.40;13.90;;;25.60;1.00;;;;;;4975847;28;20409;-70
2022/05/21 12:45:45;;;;;;;14.47;13.97;;;25.50;1.00;;;;;;4958313;28;20444;-70
2022/05/21 12:48:31;;;;;;;13.87;13.37;;;25.30;1.00;;;;;;4958554;28;20790;-70
2022/05/21 12:51:00;;;;;;;13.37;12.87;;;25.40;1.00;;;;;;4975437;28;20523;-70
2022/05/21 12:53:38;;;;;;;14.00;13.50;;;25.60;1.00;;;;;;4975706;28;20496;-70
2022/05/21 12:56:29;;;;;;;14.80;14.20;;;25.40;1.00;;;;;;4975234;28;20515;-69
2022/05/21 12:59:07;;;;;;;14.30;13.80;;;25.60;1.00;;;;;;4975311;28;20718;-71
2022/05/21 13:01:35;;;;;;;14.57;14.07;;;25.70;1.00;;;;;;4975267;28;20436;-70
2022/05/21 13:04:01;;;;;;;15.60;14.90;;;25.60;1.00;;;;;;4976257;28;20494;-70
2022/05/21 13:06:31;;;;;;;15.07;14.57;;;25.60;1.00;;;;;;4975300;28;20420;-70
2022/05/21 13:09:00;;;;;;;14.30;13.80;;;25.60;1.00;;;;;;4975108;28;20421;-70
2022/05/21 13:11:35;;;;;;;14.50;14.00;;;25.40;1.00;;;;;;4975154;28;20429;-70
2022/05/21 13:14:08;;;;;;;14.67;13.93;;;25.50;1.00;;;;;;4975218;28;20400;-70
2022/05/21 13:16:34;;;;;;;14.47;13.87;;;25.60;1.00;;;;;;4954903;29;20441;-69
2022/05/21 13:19:37;;;;;;;13.63;13.13;;;25.70;1.00;;;;;;4955489;28;20473;-69
2022/05/21 13:22:20;;;;;;;14.83;14.23;;;25.70;1.00;;;;;;4945947;28;20487;-69
2022/05/21 13:24:49;;;;;;;14.27;13.77;;;25.70;1.00;;;;;;4975542;28;20452;-70
2022/05/21 13:27:18;;;;;;;14.30;13.80;;;25.70;1.00;;;;;;4957470;28;20425;-69
2022/05/21 13:29:45;;;;;;;14.13;13.63;;;25.70;1.00;;;;;;4957373;28;20460;-69